createdAt,value
2022-10-10T00:02:26.007Z,100.00
2022-10-10T00:04:58.714Z,100.00
2022-10-10T00:07:30.934Z,100.00
2022-10-10T00:10:03.529Z,100.00
2022-10-10T00:12:35.780Z,100.00
2022-10-10T00:15:10.122Z,100.00
2022-10-10T00:17:43.997Z,100.00
2022-10-10T00:20:18.111Z,100.00
2022-10-10T00:22:50.737Z,100.00
2022-10-10T00:25:23.380Z,100.00
2022-10-10T00:27:55.812Z,100.00
2022-10-10T00:30:28.850Z,100.00
2022-10-10T00:33:03.631Z,100.00
2022-10-10T00:35:35.837Z,100.00
2022-10-10T00:38:10.192Z,100.00
2022-10-10T00:40:50.083Z,100.00
2022-10-10T00:43:22.753Z,100.00
2022-10-10T00:45:56.249Z,100.00
2022-10-10T00:48:31.601Z,100.00
2022-10-10T00:51:06.929Z,100.00
2022-10-10T00:53:44.538Z,100.00
2022-10-10T00:56:19.308Z,100.00
2022-10-10T00:58:56.799Z,100.00
2022-10-10T01:01:29.062Z,100.00
2022-10-10T01:04:03.680Z,100.00
2022-10-10T01:06:35.943Z,100.00
2022-10-10T01:09:08.518Z,100.00
2022-10-10T01:11:52.581Z,100.00
2022-10-10T01:14:36.815Z,100.00
2022-10-10T01:17:18.219Z,100.00
2022-10-10T01:20:25.524Z,100.00
2022-10-10T01:23:17.263Z,100.00
2022-10-10T01:26:00.151Z,100.00
2022-10-10T01:28:41.418Z,100.00
2022-10-10T01:31:22.747Z,100.00
2022-10-10T01:34:05.624Z,100.00
2022-10-10T01:36:47.927Z,100.00
2022-10-10T01:39:25.430Z,100.00
2022-10-10T01:42:02.110Z,100.00
2022-10-10T01:44:34.680Z,100.00
2022-10-10T01:47:09.312Z,100.00
2022-10-10T01:49:45.820Z,100.00
2022-10-10T01:52:28.565Z,100.00
2022-10-10T01:55:16.201Z,100.00
2022-10-10T01:58:01.460Z,100.00
2022-10-10T02:00:42.103Z,100.00
2022-10-10T02:03:18.542Z,100.00
2022-10-10T02:05:56.230Z,100.00
2022-10-10T02:08:36.490Z,100.00
2022-10-10T02:11:11.514Z,100.00
2022-10-10T02:13:49.844Z,100.00
2022-10-10T02:16:25.922Z,100.00
2022-10-10T02:19:01.394Z,100.00
2022-10-10T02:21:36.322Z,100.00
2022-10-10T02:24:10.765Z,100.00
2022-10-10T02:26:46.591Z,100.00
2022-10-10T02:29:34.562Z,100.00
2022-10-10T02:32:13.700Z,100.00
2022-10-10T02:34:49.521Z,100.00
2022-10-10T02:37:22.541Z,100.00
2022-10-10T02:39:59.459Z,100.00
2022-10-10T02:42:34.594Z,100.00
2022-10-10T02:45:08.190Z,100.00
2022-10-10T02:47:40.343Z,100.00
2022-10-10T02:50:13.578Z,100.00
2022-10-10T02:52:50.835Z,100.00
2022-10-10T02:55:23.430Z,100.00
2022-10-10T02:57:55.651Z,100.00
2022-10-10T03:00:29.128Z,100.00
2022-10-10T03:03:02.979Z,100.00
2022-10-10T03:05:35.910Z,100.00
2022-10-10T03:08:11.752Z,100.00
2022-10-10T03:10:44.362Z,100.00
2022-10-10T03:13:16.601Z,100.00
2022-10-10T03:15:48.629Z,100.00
2022-10-10T03:18:21.423Z,100.00
2022-10-10T03:20:57.930Z,100.00
2022-10-10T03:23:32.611Z,100.00
2022-10-10T03:26:05.431Z,100.00
2022-10-10T03:28:38.910Z,100.00
2022-10-10T03:31:11.949Z,100.00
2022-10-10T03:33:44.073Z,100.00
2022-10-10T03:36:16.251Z,100.00
2022-10-10T03:38:48.562Z,100.00
2022-10-10T03:41:20.983Z,100.00
2022-10-10T03:43:52.955Z,100.00
2022-10-10T03:46:26.935Z,100.00
2022-10-10T03:48:59.638Z,100.00
2022-10-10T03:51:32.521Z,100.00
2022-10-10T03:54:04.539Z,100.00
2022-10-10T03:56:40.252Z,100.00
2022-10-10T03:59:12.289Z,100.00
2022-10-10T04:01:44.689Z,100.00
2022-10-10T04:04:16.910Z,100.00
2022-10-10T04:06:49.162Z,100.00
2022-10-10T04:09:21.430Z,100.00
2022-10-10T04:11:53.533Z,100.00
2022-10-10T04:14:25.790Z,100.00
2022-10-10T04:17:02.832Z,100.00
2022-10-10T04:19:35.224Z,100.00
2022-10-10T04:22:10.946Z,100.00
2022-10-10T04:24:44.384Z,100.00
2022-10-10T04:27:19.581Z,100.00
2022-10-10T04:29:51.520Z,100.00
2022-10-10T04:32:24.290Z,100.00
2022-10-10T04:34:59.159Z,100.00
2022-10-10T04:37:31.260Z,100.00
2022-10-10T04:40:03.174Z,100.00
2022-10-10T04:42:35.310Z,100.00
2022-10-10T04:45:08.481Z,100.00
2022-10-10T04:47:42.403Z,100.00
2022-10-10T04:50:15.610Z,100.00
2022-10-10T04:52:48.026Z,100.00
2022-10-10T04:55:20.910Z,100.00
2022-10-10T04:57:53.240Z,100.00
2022-10-10T05:00:25.539Z,100.00
2022-10-10T05:02:57.735Z,100.00
2022-10-10T05:05:32.679Z,100.00
2022-10-10T05:08:04.941Z,100.00
2022-10-10T05:10:40.942Z,100.00
2022-10-10T05:13:15.123Z,100.00
2022-10-10T05:15:47.208Z,100.00
2022-10-10T05:18:19.752Z,100.00
2022-10-10T05:20:52.350Z,100.00
2022-10-10T05:23:24.358Z,100.00
2022-10-10T05:25:56.211Z,100.00
2022-10-10T05:28:28.452Z,100.00
2022-10-10T05:31:00.360Z,100.00
2022-10-10T05:33:32.584Z,100.00
2022-10-10T05:36:10.920Z,100.00
2022-10-10T05:38:43.753Z,100.00
2022-10-10T05:41:18.002Z,100.00
2022-10-10T05:43:50.931Z,100.00
2022-10-10T05:46:25.102Z,100.00
2022-10-10T05:48:58.338Z,100.00
2022-10-10T05:51:30.448Z,100.00
2022-10-10T05:54:03.121Z,100.00
2022-10-10T05:56:35.218Z,100.00
2022-10-10T05:59:08.102Z,100.00
2022-10-10T06:01:41.152Z,100.00
2022-10-10T06:04:13.830Z,100.00
2022-10-10T06:06:46.175Z,100.00
2022-10-10T06:09:21.571Z,100.00
2022-10-10T06:11:53.712Z,100.00
2022-10-10T06:14:28.581Z,100.00
2022-10-10T06:17:00.605Z,100.00
2022-10-10T06:19:53.502Z,100.00
2022-10-10T06:22:25.899Z,100.00
2022-10-10T06:24:58.330Z,100.00
2022-10-10T06:27:30.302Z,100.00
2022-10-10T06:30:02.561Z,100.00
2022-10-10T06:32:34.480Z,100.00
2022-10-10T06:35:07.192Z,100.00
2022-10-10T06:37:40.071Z,100.00
2022-10-10T06:40:13.320Z,100.00
2022-10-10T06:42:46.050Z,100.00
2022-10-10T06:45:18.813Z,100.00
2022-10-10T06:47:50.813Z,100.00
2022-10-10T06:50:24.233Z,100.00
2022-10-10T06:52:56.240Z,100.00
2022-10-10T06:55:28.663Z,100.00
2022-10-10T06:58:00.791Z,100.00
2022-10-10T07:00:33.180Z,100.00
2022-10-10T07:03:05.309Z,100.00
2022-10-10T07:05:41.483Z,100.00
2022-10-10T07:08:15.608Z,100.00
2022-10-10T07:10:50.638Z,100.00
2022-10-10T07:13:22.883Z,100.00
2022-10-10T07:15:55.562Z,100.00
2022-10-10T07:18:27.701Z,100.00
2022-10-10T07:21:01.470Z,100.00
2022-10-10T07:23:33.172Z,100.00
2022-10-10T07:26:08.027Z,100.00
2022-10-10T07:28:40.361Z,100.00
2022-10-10T07:31:13.402Z,100.00
2022-10-10T07:33:50.393Z,100.00
2022-10-10T07:36:23.444Z,100.00
2022-10-10T07:38:56.012Z,100.00
2022-10-10T07:41:28.434Z,100.00
2022-10-10T07:44:04.910Z,100.00
2022-10-10T07:46:38.529Z,100.00
2022-10-10T07:49:10.804Z,100.00
2022-10-10T07:51:42.905Z,100.00
2022-10-10T07:54:14.890Z,100.00
2022-10-10T07:56:47.064Z,100.00
2022-10-10T07:59:19.122Z,100.00
2022-10-10T08:01:51.356Z,100.00
2022-10-10T08:04:29.461Z,100.00
2022-10-10T08:07:01.951Z,100.00
2022-10-10T08:09:34.086Z,100.00
2022-10-10T08:12:07.290Z,100.00
2022-10-10T08:14:39.709Z,100.00
2022-10-10T08:17:14.092Z,100.00
2022-10-10T08:19:50.460Z,100.00
2022-10-10T08:22:23.072Z,100.00
2022-10-10T08:24:58.232Z,100.00
2022-10-10T08:27:40.766Z,100.00
2022-10-10T08:30:17.335Z,100.00
2022-10-10T08:32:49.685Z,100.00
2022-10-10T08:35:22.288Z,100.00
2022-10-10T08:37:55.092Z,100.00
2022-10-10T08:40:29.110Z,100.00
2022-10-10T08:43:04.992Z,100.00
2022-10-10T08:45:39.591Z,100.00
2022-10-10T08:48:19.010Z,100.00
2022-10-10T08:50:55.103Z,100.00
2022-10-10T08:53:35.028Z,100.00
2022-10-10T08:56:09.851Z,100.00
2022-10-10T08:58:46.981Z,100.00
2022-10-10T09:01:26.465Z,100.00
2022-10-10T09:04:06.900Z,100.00
2022-10-10T09:06:56.930Z,100.00
2022-10-10T09:09:39.031Z,100.00
2022-10-10T09:12:29.470Z,100.00
2022-10-10T09:15:14.072Z,100.00
2022-10-10T09:17:53.421Z,100.00
2022-10-10T09:20:38.365Z,100.00
2022-10-10T09:23:20.540Z,100.00
2022-10-10T09:25:58.168Z,100.00
2022-10-10T09:28:40.179Z,100.00
2022-10-10T09:31:20.406Z,100.00
2022-10-10T09:34:00.525Z,100.00
2022-10-10T09:36:38.502Z,100.00
2022-10-10T09:39:22.724Z,100.00
2022-10-10T09:42:00.291Z,100.00
2022-10-10T09:44:33.738Z,100.00
2022-10-10T09:47:04.181Z,100.00
2022-10-10T09:49:37.323Z,100.00
2022-10-10T09:52:25.520Z,100.00
2022-10-10T09:55:03.101Z,100.00
2022-10-10T09:57:43.052Z,100.00
2022-10-10T10:00:37.101Z,100.00
2022-10-10T10:03:18.648Z,100.00
2022-10-10T10:05:58.831Z,100.00
2022-10-10T10:08:33.707Z,100.00
2022-10-10T10:11:09.470Z,100.00
2022-10-10T10:13:42.989Z,100.00
2022-10-10T10:16:16.512Z,100.00
2022-10-10T10:18:50.420Z,100.00
2022-10-10T10:21:24.908Z,100.00
2022-10-10T10:24:05.363Z,100.00
2022-10-10T10:26:48.454Z,100.00
2022-10-10T10:29:35.598Z,100.00
2022-10-10T10:32:20.611Z,100.00
2022-10-10T10:35:15.553Z,100.00
2022-10-10T10:38:10.675Z,100.00
2022-10-10T10:40:47.162Z,100.00
2022-10-10T10:43:40.528Z,100.00
2022-10-10T10:46:29.400Z,100.00
2022-10-10T10:49:09.442Z,100.00
2022-10-10T10:52:11.861Z,100.00
2022-10-10T10:55:05.542Z,100.00
2022-10-10T10:58:05.171Z,100.00
2022-10-10T11:01:21.104Z,100.00
2022-10-10T11:05:17.480Z,100.00
2022-10-10T11:07:19.428Z,99.77
2022-10-10T11:10:02.959Z,98.35
2022-10-10T11:12:54.918Z,94.45
2022-10-10T11:15:47.974Z,97.69
2022-10-10T11:18:29.280Z,93.41
2022-10-10T11:21:06.738Z,94.78
2022-10-10T11:23:43.798Z,91.21
2022-10-10T11:26:22.145Z,88.95
2022-10-10T11:28:57.300Z,88.51
2022-10-10T11:31:33.911Z,89.95
2022-10-10T11:34:09.763Z,90.97
2022-10-10T11:36:46.124Z,88.42
2022-10-10T11:39:23.001Z,91.47
2022-10-10T11:42:00.088Z,87.60
2022-10-10T11:44:38.313Z,87.45
2022-10-10T11:47:27.460Z,88.31
2022-10-10T11:50:05.591Z,84.62
2022-10-10T11:52:47.889Z,87.07
2022-10-10T11:55:26.770Z,85.79
2022-10-10T11:58:20.089Z,85.98
2022-10-10T12:00:58.716Z,83.58
2022-10-10T12:03:30.837Z,79.20
2022-10-10T12:06:09.792Z,79.27
2022-10-10T12:08:48.177Z,80.99
2022-10-10T12:11:28.437Z,78.88
2022-10-10T12:14:02.664Z,78.72
2022-10-10T12:16:38.532Z,77.81
2022-10-10T12:19:19.727Z,75.51
2022-10-10T12:21:59.138Z,71.70
2022-10-10T12:24:33.419Z,73.41
2022-10-10T12:27:31.339Z,72.89
2022-10-10T12:30:26.413Z,68.49
2022-10-10T12:33:01.549Z,67.40
2022-10-10T12:35:43.006Z,67.39
2022-10-10T12:38:18.987Z,69.25
2022-10-10T12:41:18.695Z,66.82
2022-10-10T12:44:14.399Z,64.85
2022-10-10T12:46:49.118Z,65.17
2022-10-10T12:49:25.929Z,67.11
2022-10-10T12:52:10.020Z,66.32
2022-10-10T12:54:45.753Z,66.15
2022-10-10T12:57:25.420Z,65.82
2022-10-10T13:00:01.943Z,65.28
2022-10-10T13:02:37.178Z,63.15
2022-10-10T13:05:12.597Z,63.90
2022-10-10T13:07:46.877Z,63.68
2022-10-10T13:10:28.813Z,62.45
2022-10-10T13:13:06.638Z,63.96
2022-10-10T13:15:39.328Z,66.96
2022-10-10T13:18:13.425Z,66.77
2022-10-10T13:20:50.567Z,64.78
2022-10-10T13:23:23.331Z,62.35
2022-10-10T13:25:55.657Z,60.98
2022-10-10T13:28:28.054Z,63.58
2022-10-10T13:31:00.639Z,64.53
2022-10-10T13:33:36.209Z,64.45
2022-10-10T13:36:22.969Z,62.60
2022-10-10T13:39:01.388Z,64.02
2022-10-10T13:41:33.932Z,62.82
2022-10-10T13:44:12.579Z,63.78
2022-10-10T13:46:44.937Z,64.35
2022-10-10T13:49:26.547Z,63.00
2022-10-10T13:52:07.407Z,63.25
2022-10-10T13:54:55.887Z,62.89
2022-10-10T13:57:29.919Z,63.46
2022-10-10T14:00:08.129Z,63.93
2022-10-10T14:02:43.389Z,63.52
2022-10-10T14:05:24.001Z,65.36
2022-10-10T14:07:57.698Z,65.98
2022-10-10T14:10:36.500Z,64.26
2022-10-10T14:13:18.272Z,64.25
2022-10-10T14:15:50.989Z,64.35
2022-10-10T14:18:26.480Z,66.02
2022-10-10T14:20:58.828Z,65.96
2022-10-10T14:23:31.044Z,65.76
2022-10-10T14:26:03.749Z,65.90
2022-10-10T14:28:38.798Z,67.69
2022-10-10T14:31:11.297Z,69.02
2022-10-10T14:33:43.457Z,69.22
2022-10-10T14:36:18.005Z,69.62
2022-10-10T14:38:50.087Z,69.31
2022-10-10T14:41:22.230Z,68.52
2022-10-10T14:43:54.277Z,68.45
2022-10-10T14:46:27.011Z,69.38
2022-10-10T14:48:59.206Z,70.57
2022-10-10T14:51:37.649Z,69.24
2022-10-10T14:54:13.679Z,69.31
2022-10-10T14:57:07.801Z,72.12
2022-10-10T14:59:46.316Z,71.54
2022-10-10T15:02:23.583Z,73.47
2022-10-10T15:04:55.967Z,74.68
2022-10-10T15:07:28.565Z,73.18
2022-10-10T15:12:53.306Z,72.79
2022-10-10T15:15:25.577Z,72.62
2022-10-10T15:17:58.305Z,72.49
2022-10-10T15:20:32.177Z,72.80
2022-10-10T15:23:06.196Z,72.42
2022-10-10T15:25:42.908Z,72.80
2022-10-10T15:28:15.511Z,78.56
2022-10-10T15:30:49.914Z,79.59
2022-10-10T15:33:22.068Z,82.32
2022-10-10T15:36:10.446Z,84.47
2022-10-10T15:38:43.748Z,87.18
2022-10-10T15:41:17.414Z,89.78
2022-10-10T15:43:52.132Z,88.39
2022-10-10T15:46:26.987Z,84.80
2022-10-10T15:49:03.868Z,82.30
2022-10-10T15:51:37.210Z,84.66
2022-10-10T15:54:09.417Z,86.68
2022-10-10T15:56:42.347Z,85.93
2022-10-10T15:59:15.480Z,88.87
2022-10-10T16:01:47.487Z,94.40
2022-10-10T16:04:19.783Z,89.61
2022-10-10T16:06:59.375Z,92.37
2022-10-10T16:09:38.788Z,96.08
2022-10-10T16:12:11.537Z,98.15
2022-10-10T16:14:43.560Z,96.53
2022-10-10T16:17:23.855Z,96.25
2022-10-10T16:19:56.798Z,94.36
2022-10-10T16:22:29.056Z,91.67
2022-10-10T16:27:58.339Z,89.85
2022-10-10T16:30:30.580Z,86.22
2022-10-10T16:33:02.953Z,83.69
2022-10-10T16:35:39.129Z,82.71
2022-10-10T16:38:12.288Z,81.63
2022-10-10T16:40:44.597Z,80.32
2022-10-10T16:43:17.859Z,78.64
2022-10-10T16:45:48.358Z,76.60
2022-10-10T16:48:21.762Z,76.26
2022-10-10T16:50:52.358Z,74.61
2022-10-10T16:53:25.007Z,73.98
2022-10-10T16:56:01.456Z,74.34
2022-10-10T16:58:34.057Z,73.99
2022-10-10T17:01:09.090Z,74.18
2022-10-10T17:03:43.476Z,74.29
2022-10-10T17:06:19.268Z,74.48
2022-10-10T17:08:53.431Z,73.89
2022-10-10T17:11:31.520Z,73.55
2022-10-10T17:14:03.797Z,72.84
2022-10-10T17:17:10.681Z,72.07
2022-10-10T17:19:31.137Z,71.87
2022-10-10T17:22:03.268Z,72.67
2022-10-10T17:24:36.847Z,72.84
2022-10-10T17:27:10.143Z,73.07
2022-10-10T17:29:42.658Z,72.83
2022-10-10T17:32:14.741Z,73.24
2022-10-10T17:34:50.022Z,73.44
2022-10-10T17:37:23.088Z,73.91
2022-10-10T17:39:55.551Z,74.10
2022-10-10T17:42:27.633Z,73.60
2022-10-10T17:45:00.756Z,74.17
2022-10-10T17:47:33.450Z,75.53
2022-10-10T17:50:05.668Z,74.56
2022-10-10T17:52:40.419Z,74.25
2022-10-10T17:55:12.901Z,74.94
2022-10-10T17:57:49.091Z,77.01
2022-10-10T18:00:22.038Z,75.85
2022-10-10T18:02:54.079Z,76.56
2022-10-10T18:05:26.658Z,76.60
2022-10-10T18:07:59.028Z,77.15
2022-10-10T18:10:36.324Z,77.12
2022-10-10T18:13:13.766Z,78.33
2022-10-10T18:16:06.259Z,78.76
2022-10-10T18:18:39.477Z,78.58
2022-10-10T18:21:13.844Z,79.92
2022-10-10T18:23:46.754Z,81.08
2022-10-10T18:26:21.456Z,82.69
2022-10-10T18:28:56.077Z,86.60
2022-10-10T18:31:33.512Z,90.06
2022-10-10T18:34:08.388Z,87.21
2022-10-10T18:36:42.948Z,87.41
2022-10-10T18:39:20.151Z,88.19
2022-10-10T18:41:52.697Z,88.56
2022-10-10T18:44:27.808Z,87.80
2022-10-10T18:47:00.400Z,89.49
2022-10-10T18:49:33.277Z,89.90
2022-10-10T18:52:05.709Z,91.09
2022-10-10T18:54:38.237Z,93.45
2022-10-10T18:57:10.637Z,94.52
2022-10-10T18:59:43.120Z,97.30
2022-10-10T19:02:17.431Z,95.60
2022-10-10T19:04:51.279Z,96.93
2022-10-10T19:07:23.392Z,96.95
2022-10-10T19:09:59.938Z,98.23
2022-10-10T19:12:35.112Z,98.18
2022-10-10T19:15:09.031Z,96.91
2022-10-10T19:17:41.787Z,98.24
2022-10-10T19:20:14.970Z,97.84
2022-10-10T19:22:47.528Z,99.34
2022-10-10T19:25:22.847Z,98.67
2022-10-10T19:27:56.400Z,97.96
2022-10-10T19:30:28.679Z,98.87
2022-10-10T19:33:01.317Z,98.68
2022-10-10T19:35:36.974Z,97.73
2022-10-10T19:38:11.120Z,97.14
2022-10-10T19:40:50.195Z,97.43
2022-10-10T19:43:22.829Z,96.36
2022-10-10T19:45:55.987Z,97.66
2022-10-10T19:48:28.554Z,97.36
2022-10-10T19:51:06.567Z,98.77
2022-10-10T19:53:40.525Z,98.05
2022-10-10T19:56:26.189Z,97.63
2022-10-10T19:59:01.306Z,99.30
2022-10-10T20:01:34.151Z,99.79
2022-10-10T20:04:06.500Z,100.00
2022-10-10T20:06:38.798Z,99.82
2022-10-10T20:09:11.218Z,99.99
2022-10-10T20:11:46.091Z,100.00
2022-10-10T20:14:19.928Z,100.00
2022-10-10T20:16:52.896Z,100.00
2022-10-10T20:19:25.523Z,100.00
2022-10-10T20:21:58.187Z,100.00
2022-10-10T20:24:30.459Z,100.00
2022-10-10T20:27:02.792Z,100.00
2022-10-10T20:29:34.757Z,100.00
2022-10-10T20:32:07.307Z,100.00
2022-10-10T20:34:39.468Z,100.00
2022-10-10T20:37:11.816Z,100.00
2022-10-10T20:39:44.150Z,100.00
2022-10-10T20:42:16.357Z,100.00
2022-10-10T20:44:48.670Z,100.00
2022-10-10T20:47:20.727Z,100.00
2022-10-10T20:49:53.328Z,100.00
2022-10-10T20:52:25.529Z,100.00
2022-10-10T20:54:58.939Z,100.00
2022-10-10T20:57:30.997Z,100.00
2022-10-10T21:00:06.323Z,100.00
2022-10-10T21:02:41.519Z,100.00
2022-10-10T21:05:13.919Z,100.00
2022-10-10T21:07:46.817Z,100.00
2022-10-10T21:10:19.298Z,100.00
2022-10-10T21:12:51.656Z,100.00
2022-10-10T21:15:25.149Z,100.00
2022-10-10T21:17:55.897Z,100.00
2022-10-10T21:20:28.210Z,100.00
2022-10-10T21:23:05.727Z,100.00
2022-10-10T21:25:40.579Z,100.00
2022-10-10T21:28:14.420Z,100.00
2022-10-10T21:30:51.879Z,100.00
2022-10-10T21:33:24.169Z,100.00
2022-10-10T21:35:58.681Z,100.00
2022-10-10T21:38:31.587Z,100.00
2022-10-10T21:41:09.017Z,100.00
2022-10-10T21:43:44.919Z,100.00
2022-10-10T21:46:18.684Z,100.00
2022-10-10T21:48:52.191Z,100.00
2022-10-10T21:51:24.728Z,100.00
2022-10-10T21:53:59.009Z,100.00
2022-10-10T21:56:31.109Z,100.00
2022-10-10T21:59:03.438Z,100.00
2022-10-10T22:01:37.967Z,100.00
2022-10-10T22:04:13.569Z,100.00
2022-10-10T22:06:45.818Z,100.00
2022-10-10T22:09:20.867Z,100.00
2022-10-10T22:11:57.618Z,100.00
2022-10-10T22:14:31.818Z,100.00
2022-10-10T22:17:03.837Z,100.00
2022-10-10T22:19:37.351Z,100.00
2022-10-10T22:22:09.822Z,100.00
2022-10-10T22:24:42.451Z,100.00
2022-10-10T22:27:14.528Z,100.00
2022-10-10T22:29:47.283Z,100.00
2022-10-10T22:32:19.931Z,100.00
2022-10-10T22:34:55.149Z,100.00
2022-10-10T22:37:27.879Z,100.00
2022-10-10T22:40:00.219Z,100.00
2022-10-10T22:42:32.658Z,100.00
2022-10-10T22:45:05.369Z,100.00
2022-10-10T22:47:37.658Z,100.00
2022-10-10T22:50:11.437Z,100.00
2022-10-10T22:52:46.745Z,100.00
2022-10-10T22:55:19.159Z,100.00
2022-10-10T22:57:53.078Z,100.00
2022-10-10T23:00:25.261Z,100.00
2022-10-10T23:03:00.028Z,100.00
2022-10-10T23:05:32.789Z,100.00
2022-10-10T23:08:06.647Z,100.00
2022-10-10T23:10:38.871Z,100.00
2022-10-10T23:13:13.057Z,100.00
2022-10-10T23:15:47.149Z,100.00
2022-10-10T23:18:19.486Z,100.00
2022-10-10T23:20:51.957Z,100.00
2022-10-10T23:23:25.765Z,100.00
2022-10-10T23:25:58.137Z,100.00
2022-10-10T23:28:30.579Z,100.00
2022-10-10T23:31:07.676Z,100.00
2022-10-10T23:33:40.378Z,100.00
2022-10-10T23:36:14.646Z,100.00
2022-10-10T23:38:50.016Z,100.00
2022-10-10T23:41:22.237Z,100.00
2022-10-10T23:43:54.221Z,100.00
2022-10-10T23:46:26.597Z,100.00
2022-10-10T23:48:58.715Z,100.00
2022-10-10T23:51:30.855Z,100.00
2022-10-10T23:54:03.015Z,100.00
2022-10-10T23:56:35.217Z,100.00
2022-10-10T23:59:07.458Z,100.00
